sensor_id;sensor_type;location;lat;lon;timestamp;temperature;humidity
74661;SHT31;63191;39.566;2.654;2022-12-20T00:01:16;14.02;78.59
74661;SHT31;63191;39.566;2.654;2022-12-20T00:03:50;13.96;78.60
74661;SHT31;63191;39.566;2.654;2022-12-20T00:06:19;13.91;78.61
74661;SHT31;63191;39.566;2.654;2022-12-20T00:08:46;13.88;78.69
74661;SHT31;63191;39.566;2.654;2022-12-20T00:11:24;13.88;78.70
74661;SHT31;63191;39.566;2.654;2022-12-20T00:13:57;13.89;78.71
74661;SHT31;63191;39.566;2.654;2022-12-20T00:16:24;13.92;78.73
74661;SHT31;63191;39.566;2.654;2022-12-20T00:18:53;13.92;78.79
74661;SHT31;63191;39.566;2.654;2022-12-20T00:21:23;13.91;78.80
74661;SHT31;63191;39.566;2.654;2022-12-20T00:23:53;13.91;78.84
74661;SHT31;63191;39.566;2.654;2022-12-20T00:26:24;13.88;78.90
74661;SHT31;63191;39.566;2.654;2022-12-20T00:28:53;13.85;78.95
74661;SHT31;63191;39.566;2.654;2022-12-20T00:31:20;13.84;79.00
74661;SHT31;63191;39.566;2.654;2022-12-20T00:33:49;13.84;79.07
74661;SHT31;63191;39.566;2.654;2022-12-20T00:36:17;13.84;79.10
74661;SHT31;63191;39.566;2.654;2022-12-20T00:38:44;13.82;79.13
74661;SHT31;63191;39.566;2.654;2022-12-20T00:41:12;13.81;79.19
74661;SHT31;63191;39.566;2.654;2022-12-20T00:43:41;13.78;79.32
74661;SHT31;63191;39.566;2.654;2022-12-20T00:46:08;13.75;79.46
74661;SHT31;63191;39.566;2.654;2022-12-20T00:48:36;13.74;79.58
74661;SHT31;63191;39.566;2.654;2022-12-20T00:51:05;13.75;79.71
74661;SHT31;63191;39.566;2.654;2022-12-20T00:53:36;13.76;79.80
74661;SHT31;63191;39.566;2.654;2022-12-20T00:56:03;13.80;79.80
74661;SHT31;63191;39.566;2.654;2022-12-20T00:58:37;13.85;79.81
74661;SHT31;63191;39.566;2.654;2022-12-20T01:01:06;13.90;79.87
74661;SHT31;63191;39.566;2.654;2022-12-20T01:03:45;13.92;79.82
74661;SHT31;63191;39.566;2.654;2022-12-20T01:06:11;13.94;79.89
74661;SHT31;63191;39.566;2.654;2022-12-20T01:08:37;13.96;79.96
74661;SHT31;63191;39.566;2.654;2022-12-20T01:11:04;13.97;80.00
74661;SHT31;63191;39.566;2.654;2022-12-20T01:13:36;14.01;80.00
74661;SHT31;63191;39.566;2.654;2022-12-20T01:18:36;14.10;79.91
74661;SHT31;63191;39.566;2.654;2022-12-20T01:21:03;14.14;79.84
74661;SHT31;63191;39.566;2.654;2022-12-20T01:23:33;14.18;79.80
74661;SHT31;63191;39.566;2.654;2022-12-20T01:26:02;14.19;79.72
74661;SHT31;63191;39.566;2.654;2022-12-20T01:28:36;14.21;79.67
74661;SHT31;63191;39.566;2.654;2022-12-20T01:31:09;14.22;79.57
74661;SHT31;63191;39.566;2.654;2022-12-20T01:33:41;14.21;79.47
74661;SHT31;63191;39.566;2.654;2022-12-20T01:36:17;14.23;79.38
74661;SHT31;63191;39.566;2.654;2022-12-20T01:38:49;14.24;79.27
74661;SHT31;63191;39.566;2.654;2022-12-20T01:41:30;14.25;79.23
74661;SHT31;63191;39.566;2.654;2022-12-20T01:44:00;14.25;79.21
74661;SHT31;63191;39.566;2.654;2022-12-20T01:46:43;14.23;79.22
74661;SHT31;63191;39.566;2.654;2022-12-20T01:52:01;14.21;79.20
74661;SHT31;63191;39.566;2.654;2022-12-20T01:54:43;14.23;79.14
74661;SHT31;63191;39.566;2.654;2022-12-20T01:57:26;14.24;79.09
74661;SHT31;63191;39.566;2.654;2022-12-20T02:00:03;14.24;79.06
74661;SHT31;63191;39.566;2.654;2022-12-20T02:02:32;14.22;79.10
74661;SHT31;63191;39.566;2.654;2022-12-20T02:04:58;14.22;79.11
74661;SHT31;63191;39.566;2.654;2022-12-20T02:07:25;14.19;79.16
74661;SHT31;63191;39.566;2.654;2022-12-20T02:09:55;14.18;79.21
74661;SHT31;63191;39.566;2.654;2022-12-20T02:12:26;14.20;79.28
74661;SHT31;63191;39.566;2.654;2022-12-20T02:18:28;14.28;79.39
74661;SHT31;63191;39.566;2.654;2022-12-20T02:21:50;14.33;79.40
74661;SHT31;63191;39.566;2.654;2022-12-20T02:27:48;14.35;79.40
74661;SHT31;63191;39.566;2.654;2022-12-20T02:30:47;14.32;79.39
74661;SHT31;63191;39.566;2.654;2022-12-20T02:33:29;14.31;79.34
74661;SHT31;63191;39.566;2.654;2022-12-20T02:35:55;14.32;79.40
74661;SHT31;63191;39.566;2.654;2022-12-20T02:41:20;14.36;79.48
74661;SHT31;63191;39.566;2.654;2022-12-20T02:44:12;14.40;79.49
74661;SHT31;63191;39.566;2.654;2022-12-20T02:49:47;14.39;79.50
74661;SHT31;63191;39.566;2.654;2022-12-20T02:52:16;14.39;79.52
74661;SHT31;63191;39.566;2.654;2022-12-20T02:54:58;14.39;79.52
74661;SHT31;63191;39.566;2.654;2022-12-20T02:57:35;14.40;79.50
74661;SHT31;63191;39.566;2.654;2022-12-20T03:00:17;14.41;79.42
74661;SHT31;63191;39.566;2.654;2022-12-20T03:02:52;14.39;79.40
74661;SHT31;63191;39.566;2.654;2022-12-20T03:08:25;14.27;79.50
74661;SHT31;63191;39.566;2.654;2022-12-20T03:10:52;14.21;79.57
74661;SHT31;63191;39.566;2.654;2022-12-20T03:21:49;14.09;79.88
74661;SHT31;63191;39.566;2.654;2022-12-20T03:27:03;14.02;80.09
74661;SHT31;63191;39.566;2.654;2022-12-20T03:29:29;13.98;80.19
74661;SHT31;63191;39.566;2.654;2022-12-20T03:31:57;13.94;80.35
74661;SHT31;63191;39.566;2.654;2022-12-20T03:34:23;13.92;80.43
74661;SHT31;63191;39.566;2.654;2022-12-20T03:36:49;13.91;80.52
74661;SHT31;63191;39.566;2.654;2022-12-20T03:39:15;13.90;80.59
74661;SHT31;63191;39.566;2.654;2022-12-20T03:41:43;13.88;80.65
74661;SHT31;63191;39.566;2.654;2022-12-20T03:44:09;13.86;80.76
74661;SHT31;63191;39.566;2.654;2022-12-20T03:46:35;13.84;80.84
74661;SHT31;63191;39.566;2.654;2022-12-20T03:49:01;13.81;80.97
74661;SHT31;63191;39.566;2.654;2022-12-20T03:51:27;13.77;81.08
74661;SHT31;63191;39.566;2.654;2022-12-20T03:53:53;13.77;81.13
74661;SHT31;63191;39.566;2.654;2022-12-20T03:56:20;13.77;81.20
74661;SHT31;63191;39.566;2.654;2022-12-20T03:58:46;13.77;81.21
74661;SHT31;63191;39.566;2.654;2022-12-20T04:03:46;13.75;81.21
74661;SHT31;63191;39.566;2.654;2022-12-20T04:06:12;13.72;81.30
74661;SHT31;63191;39.566;2.654;2022-12-20T04:08:39;13.68;81.37
74661;SHT31;63191;39.566;2.654;2022-12-20T04:11:05;13.66;81.48
74661;SHT31;63191;39.566;2.654;2022-12-20T04:13:44;13.65;81.60
74661;SHT31;63191;39.566;2.654;2022-12-20T04:16:20;13.65;81.62
74661;SHT31;63191;39.566;2.654;2022-12-20T04:18:49;13.65;81.65
74661;SHT31;63191;39.566;2.654;2022-12-20T04:21:20;13.66;81.67
74661;SHT31;63191;39.566;2.654;2022-12-20T04:23:49;13.63;81.70
74661;SHT31;63191;39.566;2.654;2022-12-20T04:26:15;13.61;81.72
74661;SHT31;63191;39.566;2.654;2022-12-20T04:28:42;13.58;81.85
74661;SHT31;63191;39.566;2.654;2022-12-20T04:31:10;13.55;81.95
74661;SHT31;63191;39.566;2.654;2022-12-20T04:33:37;13.54;82.00
74661;SHT31;63191;39.566;2.654;2022-12-20T04:36:03;13.53;82.03
74661;SHT31;63191;39.566;2.654;2022-12-20T04:38:30;13.52;82.08
74661;SHT31;63191;39.566;2.654;2022-12-20T04:40:56;13.52;82.12
74661;SHT31;63191;39.566;2.654;2022-12-20T04:43:30;13.50;82.19
74661;SHT31;63191;39.566;2.654;2022-12-20T04:46:21;13.50;82.28
74661;SHT31;63191;39.566;2.654;2022-12-20T04:49:30;13.47;82.33
74661;SHT31;63191;39.566;2.654;2022-12-20T04:51:56;13.47;82.40
74661;SHT31;63191;39.566;2.654;2022-12-20T04:54:42;13.47;82.40
74661;SHT31;63191;39.566;2.654;2022-12-20T04:59:53;13.52;82.50
74661;SHT31;63191;39.566;2.654;2022-12-20T05:02:19;13.52;82.55
74661;SHT31;63191;39.566;2.654;2022-12-20T05:04:45;13.52;82.60
74661;SHT31;63191;39.566;2.654;2022-12-20T05:07:13;13.53;82.54
74661;SHT31;63191;39.566;2.654;2022-12-20T05:09:38;13.50;82.52
74661;SHT31;63191;39.566;2.654;2022-12-20T05:12:04;13.47;82.56
74661;SHT31;63191;39.566;2.654;2022-12-20T05:14:34;13.48;82.52
74661;SHT31;63191;39.566;2.654;2022-12-20T05:17:03;13.47;82.50
74661;SHT31;63191;39.566;2.654;2022-12-20T05:19:44;13.46;82.55
74661;SHT31;63191;39.566;2.654;2022-12-20T05:22:10;13.47;82.60
74661;SHT31;63191;39.566;2.654;2022-12-20T05:24:54;13.46;82.62
74661;SHT31;63191;39.566;2.654;2022-12-20T05:27:39;13.43;82.70
74661;SHT31;63191;39.566;2.654;2022-12-20T05:30:05;13.40;82.74
74661;SHT31;63191;39.566;2.654;2022-12-20T05:32:31;13.37;82.80
74661;SHT31;63191;39.566;2.654;2022-12-20T05:34:57;13.35;82.80
74661;SHT31;63191;39.566;2.654;2022-12-20T05:37:24;13.37;82.80
74661;SHT31;63191;39.566;2.654;2022-12-20T05:39:50;13.38;82.80
74661;SHT31;63191;39.566;2.654;2022-12-20T05:42:15;13.39;82.80
74661;SHT31;63191;39.566;2.654;2022-12-20T05:44:42;13.39;82.80
74661;SHT31;63191;39.566;2.654;2022-12-20T05:47:07;13.40;82.80
74661;SHT31;63191;39.566;2.654;2022-12-20T05:49:33;13.39;82.87
74661;SHT31;63191;39.566;2.654;2022-12-20T05:51:59;13.40;82.94
74661;SHT31;63191;39.566;2.654;2022-12-20T05:54:27;13.42;82.93
74661;SHT31;63191;39.566;2.654;2022-12-20T05:56:53;13.44;82.90
74661;SHT31;63191;39.566;2.654;2022-12-20T05:59:19;13.46;82.84
74661;SHT31;63191;39.566;2.654;2022-12-20T06:01:44;13.46;82.86
74661;SHT31;63191;39.566;2.654;2022-12-20T06:04:10;13.47;82.90
74661;SHT31;63191;39.566;2.654;2022-12-20T06:06:36;13.48;82.91
74661;SHT31;63191;39.566;2.654;2022-12-20T06:09:02;13.48;82.90
74661;SHT31;63191;39.566;2.654;2022-12-20T06:11:28;13.47;82.90
74661;SHT31;63191;39.566;2.654;2022-12-20T06:13:53;13.49;82.90
74661;SHT31;63191;39.566;2.654;2022-12-20T06:16:19;13.53;82.90
74661;SHT31;63191;39.566;2.654;2022-12-20T06:18:47;13.57;82.90
74661;SHT31;63191;39.566;2.654;2022-12-20T06:21:14;13.61;82.87
74661;SHT31;63191;39.566;2.654;2022-12-20T06:23:40;13.63;82.80
74661;SHT31;63191;39.566;2.654;2022-12-20T06:26:06;13.65;82.71
74661;SHT31;63191;39.566;2.654;2022-12-20T06:28:35;13.66;82.68
74661;SHT31;63191;39.566;2.654;2022-12-20T06:31:07;13.68;82.61
74661;SHT31;63191;39.566;2.654;2022-12-20T06:33:35;13.69;82.51
74661;SHT31;63191;39.566;2.654;2022-12-20T06:36:05;13.70;82.34
74661;SHT31;63191;39.566;2.654;2022-12-20T06:38:31;13.70;82.15
74661;SHT31;63191;39.566;2.654;2022-12-20T06:40:57;13.67;81.97
74661;SHT31;63191;39.566;2.654;2022-12-20T06:43:23;13.62;81.83
74661;SHT31;63191;39.566;2.654;2022-12-20T06:45:49;13.56;81.76
74661;SHT31;63191;39.566;2.654;2022-12-20T06:48:17;13.49;81.74
74661;SHT31;63191;39.566;2.654;2022-12-20T06:50:48;13.42;81.70
74661;SHT31;63191;39.566;2.654;2022-12-20T06:53:14;13.37;81.69
74661;SHT31;63191;39.566;2.654;2022-12-20T06:55:41;13.34;81.68
74661;SHT31;63191;39.566;2.654;2022-12-20T06:58:14;13.31;81.69
74661;SHT31;63191;39.566;2.654;2022-12-20T07:00:44;13.27;81.73
74661;SHT31;63191;39.566;2.654;2022-12-20T07:03:11;13.24;81.80
74661;SHT31;63191;39.566;2.654;2022-12-20T07:05:36;13.22;81.91
74661;SHT31;63191;39.566;2.654;2022-12-20T07:08:02;13.20;81.99
74661;SHT31;63191;39.566;2.654;2022-12-20T07:10:29;13.19;82.00
74661;SHT31;63191;39.566;2.654;2022-12-20T07:12:57;13.19;81.99
74661;SHT31;63191;39.566;2.654;2022-12-20T07:15:25;13.24;81.91
74661;SHT31;63191;39.566;2.654;2022-12-20T07:17:51;13.29;81.82
74661;SHT31;63191;39.566;2.654;2022-12-20T07:20:18;13.35;81.76
74661;SHT31;63191;39.566;2.654;2022-12-20T07:22:46;13.41;81.70
74661;SHT31;63191;39.566;2.654;2022-12-20T07:25:12;13.49;81.62
74661;SHT31;63191;39.566;2.654;2022-12-20T07:27:38;13.57;81.56
74661;SHT31;63191;39.566;2.654;2022-12-20T07:30:18;13.69;81.50
74661;SHT31;63191;39.566;2.654;2022-12-20T07:32:45;13.87;81.41
74661;SHT31;63191;39.566;2.654;2022-12-20T07:37:58;14.43;80.80
74661;SHT31;63191;39.566;2.654;2022-12-20T07:40:54;14.79;80.20
74661;SHT31;63191;39.566;2.654;2022-12-20T07:43:37;15.15;79.73
74661;SHT31;63191;39.566;2.654;2022-12-20T07:46:07;15.49;79.16
74661;SHT31;63191;39.566;2.654;2022-12-20T07:48:37;15.91;78.27
74661;SHT31;63191;39.566;2.654;2022-12-20T07:53:53;16.97;76.70
74661;SHT31;63191;39.566;2.654;2022-12-20T07:56:25;17.62;75.78
74661;SHT31;63191;39.566;2.654;2022-12-20T07:58:56;18.36;74.83
74661;SHT31;63191;39.566;2.654;2022-12-20T08:01:57;19.25;73.18
74661;SHT31;63191;39.566;2.654;2022-12-20T08:05:39;20.17;70.43
74661;SHT31;63191;39.566;2.654;2022-12-20T08:08:09;20.81;68.14
74661;SHT31;63191;39.566;2.654;2022-12-20T08:10:36;21.35;66.48
74661;SHT31;63191;39.566;2.654;2022-12-20T08:13:03;21.95;64.88
74661;SHT31;63191;39.566;2.654;2022-12-20T08:15:30;22.54;63.26
74661;SHT31;63191;39.566;2.654;2022-12-20T08:18:00;22.94;61.50
74661;SHT31;63191;39.566;2.654;2022-12-20T08:20:26;23.07;59.83
74661;SHT31;63191;39.566;2.654;2022-12-20T08:22:52;23.16;59.34
74661;SHT31;63191;39.566;2.654;2022-12-20T08:25:18;23.56;59.34
74661;SHT31;63191;39.566;2.654;2022-12-20T08:27:45;24.30;58.19
74661;SHT31;63191;39.566;2.654;2022-12-20T08:30:11;24.99;56.64
74661;SHT31;63191;39.566;2.654;2022-12-20T08:32:39;25.61;54.97
74661;SHT31;63191;39.566;2.654;2022-12-20T08:35:05;26.17;53.31
74661;SHT31;63191;39.566;2.654;2022-12-20T08:37:32;26.76;52.11
74661;SHT31;63191;39.566;2.654;2022-12-20T08:40:01;27.40;50.57
74661;SHT31;63191;39.566;2.654;2022-12-20T08:42:28;27.97;49.00
74661;SHT31;63191;39.566;2.654;2022-12-20T08:44:54;28.57;47.95
74661;SHT31;63191;39.566;2.654;2022-12-20T08:47:19;29.25;46.67
74661;SHT31;63191;39.566;2.654;2022-12-20T08:49:46;29.91;45.37
74661;SHT31;63191;39.566;2.654;2022-12-20T08:52:12;30.51;44.21
74661;SHT31;63191;39.566;2.654;2022-12-20T08:54:38;31.05;43.04
74661;SHT31;63191;39.566;2.654;2022-12-20T08:57:04;31.60;41.72
74661;SHT31;63191;39.566;2.654;2022-12-20T08:59:32;32.07;40.62
74661;SHT31;63191;39.566;2.654;2022-12-20T09:01:58;32.50;39.63
74661;SHT31;63191;39.566;2.654;2022-12-20T09:04:24;32.94;38.59
74661;SHT31;63191;39.566;2.654;2022-12-20T09:06:49;33.40;37.67
74661;SHT31;63191;39.566;2.654;2022-12-20T09:09:17;33.83;36.83
74661;SHT31;63191;39.566;2.654;2022-12-20T09:11:43;34.26;36.33
74661;SHT31;63191;39.566;2.654;2022-12-20T09:14:09;34.68;35.63
74661;SHT31;63191;39.566;2.654;2022-12-20T09:16:35;35.09;34.98
74661;SHT31;63191;39.566;2.654;2022-12-20T09:19:01;35.52;34.57
74661;SHT31;63191;39.566;2.654;2022-12-20T09:21:28;36.00;33.94
74661;SHT31;63191;39.566;2.654;2022-12-20T09:23:54;36.53;33.29
74661;SHT31;63191;39.566;2.654;2022-12-20T09:26:22;37.10;32.57
74661;SHT31;63191;39.566;2.654;2022-12-20T09:28:48;37.61;31.81
74661;SHT31;63191;39.566;2.654;2022-12-20T09:31:16;38.02;31.07
74661;SHT31;63191;39.566;2.654;2022-12-20T09:33:45;38.39;30.49
74661;SHT31;63191;39.566;2.654;2022-12-20T09:36:18;38.83;29.88
74661;SHT31;63191;39.566;2.654;2022-12-20T09:38:47;39.28;29.45
74661;SHT31;63191;39.566;2.654;2022-12-20T09:44:15;39.89;28.57
74661;SHT31;63191;39.566;2.654;2022-12-20T09:49:44;39.90;27.90
74661;SHT31;63191;39.566;2.654;2022-12-20T09:58:15;38.66;27.45
74661;SHT31;63191;39.566;2.654;2022-12-20T10:00:58;38.17;28.22
74661;SHT31;63191;39.566;2.654;2022-12-20T10:03:51;38.67;28.50
74661;SHT31;63191;39.566;2.654;2022-12-20T10:09:36;39.73;28.17
74661;SHT31;63191;39.566;2.654;2022-12-20T10:15:25;40.31;27.51
74661;SHT31;63191;39.566;2.654;2022-12-20T10:24:20;41.03;26.57
74661;SHT31;63191;39.566;2.654;2022-12-20T10:26:44;40.94;26.57
74661;SHT31;63191;39.566;2.654;2022-12-20T10:29:13;40.95;26.65
74661;SHT31;63191;39.566;2.654;2022-12-20T10:31:40;41.03;26.66
74661;SHT31;63191;39.566;2.654;2022-12-20T10:34:06;41.10;26.76
74661;SHT31;63191;39.566;2.654;2022-12-20T10:36:34;41.44;26.43
74661;SHT31;63191;39.566;2.654;2022-12-20T10:39:07;41.78;26.27
74661;SHT31;63191;39.566;2.654;2022-12-20T10:46:50;42.43;25.04
74661;SHT31;63191;39.566;2.654;2022-12-20T10:49:37;42.39;25.30
74661;SHT31;63191;39.566;2.654;2022-12-20T10:54:34;42.18;25.07
74661;SHT31;63191;39.566;2.654;2022-12-20T10:57:25;42.01;24.97
74661;SHT31;63191;39.566;2.654;2022-12-20T11:00:03;41.63;25.19
74661;SHT31;63191;39.566;2.654;2022-12-20T11:02:37;41.32;25.18
74661;SHT31;63191;39.566;2.654;2022-12-20T11:07:35;40.75;26.28
74661;SHT31;63191;39.566;2.654;2022-12-20T11:12:58;41.43;26.00
74661;SHT31;63191;39.566;2.654;2022-12-20T11:15:27;41.79;25.69
74661;SHT31;63191;39.566;2.654;2022-12-20T11:18:06;42.03;25.42
74661;SHT31;63191;39.566;2.654;2022-12-20T11:23:35;42.83;24.88
74661;SHT31;63191;39.566;2.654;2022-12-20T11:35:10;41.56;25.17
74661;SHT31;63191;39.566;2.654;2022-12-20T11:38:13;41.81;25.82
74661;SHT31;63191;39.566;2.654;2022-12-20T11:46:56;42.18;24.79
74661;SHT31;63191;39.566;2.654;2022-12-20T11:55:39;40.80;25.89
74661;SHT31;63191;39.566;2.654;2022-12-20T12:01:03;41.19;26.01
74661;SHT31;63191;39.566;2.654;2022-12-20T12:03:40;41.19;25.65
74661;SHT31;63191;39.566;2.654;2022-12-20T12:06:24;40.48;25.68
74661;SHT31;63191;39.566;2.654;2022-12-20T12:09:38;39.78;26.51
74661;SHT31;63191;39.566;2.654;2022-12-20T12:12:14;39.39;26.85
74661;SHT31;63191;39.566;2.654;2022-12-20T12:26:36;36.03;31.08
74661;SHT31;63191;39.566;2.654;2022-12-20T12:46:24;36.37;31.32
74661;SHT31;63191;39.566;2.654;2022-12-20T12:48:57;36.54;31.05
74661;SHT31;63191;39.566;2.654;2022-12-20T12:51:30;36.31;30.83
74661;SHT31;63191;39.566;2.654;2022-12-20T12:54:02;35.93;31.29
74661;SHT31;63191;39.566;2.654;2022-12-20T13:01:46;33.22;34.47
74661;SHT31;63191;39.566;2.654;2022-12-20T13:10:54;31.49;37.61
74661;SHT31;63191;39.566;2.654;2022-12-20T13:17:53;31.06;38.62
74661;SHT31;63191;39.566;2.654;2022-12-20T13:20:23;30.71;39.22
74661;SHT31;63191;39.566;2.654;2022-12-20T13:25:44;29.59;41.23
74661;SHT31;63191;39.566;2.654;2022-12-20T13:38:39;26.95;46.80
74661;SHT31;63191;39.566;2.654;2022-12-20T13:41:37;26.58;47.90
74661;SHT31;63191;39.566;2.654;2022-12-20T13:49:33;25.36;51.30
74661;SHT31;63191;39.566;2.654;2022-12-20T13:54:59;24.09;54.17
74661;SHT31;63191;39.566;2.654;2022-12-20T13:57:46;23.42;55.80
74661;SHT31;63191;39.566;2.654;2022-12-20T14:00:14;22.99;57.33
74661;SHT31;63191;39.566;2.654;2022-12-20T14:02:46;22.58;58.80
74661;SHT31;63191;39.566;2.654;2022-12-20T14:05:20;22.20;60.12
74661;SHT31;63191;39.566;2.654;2022-12-20T14:07:57;21.92;61.29
74661;SHT31;63191;39.566;2.654;2022-12-20T14:10:29;21.67;62.45
74661;SHT31;63191;39.566;2.654;2022-12-20T14:12:59;21.43;63.40
74661;SHT31;63191;39.566;2.654;2022-12-20T14:16:15;21.21;64.27
74661;SHT31;63191;39.566;2.654;2022-12-20T14:18:48;21.09;64.53
74661;SHT31;63191;39.566;2.654;2022-12-20T14:21:26;20.95;64.70
74661;SHT31;63191;39.566;2.654;2022-12-20T14:23:55;20.76;64.58
74661;SHT31;63191;39.566;2.654;2022-12-20T14:26:27;20.59;65.17
74661;SHT31;63191;39.566;2.654;2022-12-20T14:28:57;20.39;66.03
74661;SHT31;63191;39.566;2.654;2022-12-20T14:34:03;19.97;66.90
74661;SHT31;63191;39.566;2.654;2022-12-20T14:36:35;19.78;67.40
74661;SHT31;63191;39.566;2.654;2022-12-20T14:39:23;19.64;68.19
74661;SHT31;63191;39.566;2.654;2022-12-20T14:44:32;19.38;69.43
74661;SHT31;63191;39.566;2.654;2022-12-20T14:46:59;19.29;69.96
74661;SHT31;63191;39.566;2.654;2022-12-20T14:49:36;19.23;70.60
74661;SHT31;63191;39.566;2.654;2022-12-20T14:54:41;19.12;70.61
74661;SHT31;63191;39.566;2.654;2022-12-20T14:57:10;19.04;70.69
74661;SHT31;63191;39.566;2.654;2022-12-20T14:59:58;18.93;70.74
74661;SHT31;63191;39.566;2.654;2022-12-20T15:13:35;18.51;71.59
74661;SHT31;63191;39.566;2.654;2022-12-20T15:18:55;18.32;72.44
74661;SHT31;63191;39.566;2.654;2022-12-20T15:21:30;18.27;72.05
74661;SHT31;63191;39.566;2.654;2022-12-20T15:24:02;18.20;70.35
74661;SHT31;63191;39.566;2.654;2022-12-20T15:26:34;18.15;70.33
74661;SHT31;63191;39.566;2.654;2022-12-20T15:29:00;18.10;70.59
74661;SHT31;63191;39.566;2.654;2022-12-20T15:31:27;18.06;71.10
74661;SHT31;63191;39.566;2.654;2022-12-20T15:33:54;18.00;70.93
74661;SHT31;63191;39.566;2.654;2022-12-20T15:36:24;17.94;71.31
74661;SHT31;63191;39.566;2.654;2022-12-20T15:38:53;17.91;71.31
74661;SHT31;63191;39.566;2.654;2022-12-20T15:43:58;17.87;70.36
74661;SHT31;63191;39.566;2.654;2022-12-20T15:46:28;17.84;70.08
74661;SHT31;63191;39.566;2.654;2022-12-20T15:48:54;17.80;69.80
74661;SHT31;63191;39.566;2.654;2022-12-20T15:51:25;17.75;69.26
74661;SHT31;63191;39.566;2.654;2022-12-20T15:53:55;17.70;69.31
74661;SHT31;63191;39.566;2.654;2022-12-20T15:56:24;17.63;69.47
74661;SHT31;63191;39.566;2.654;2022-12-20T15:58:51;17.61;69.87
74661;SHT31;63191;39.566;2.654;2022-12-20T16:01:28;17.59;70.10
74661;SHT31;63191;39.566;2.654;2022-12-20T16:04:03;17.56;70.46
74661;SHT31;63191;39.566;2.654;2022-12-20T16:06:30;17.52;71.15
74661;SHT31;63191;39.566;2.654;2022-12-20T16:08:56;17.46;71.79
74661;SHT31;63191;39.566;2.654;2022-12-20T16:11:24;17.41;72.07
74661;SHT31;63191;39.566;2.654;2022-12-20T16:13:55;17.35;72.54
74661;SHT31;63191;39.566;2.654;2022-12-20T16:16:24;17.30;73.01
74661;SHT31;63191;39.566;2.654;2022-12-20T16:18:55;17.24;73.43
74661;SHT31;63191;39.566;2.654;2022-12-20T16:21:26;17.18;73.86
74661;SHT31;63191;39.566;2.654;2022-12-20T16:23:56;17.14;74.40
74661;SHT31;63191;39.566;2.654;2022-12-20T16:26:22;17.11;75.03
74661;SHT31;63191;39.566;2.654;2022-12-20T16:28:50;17.09;75.38
74661;SHT31;63191;39.566;2.654;2022-12-20T16:31:22;17.10;75.70
74661;SHT31;63191;39.566;2.654;2022-12-20T16:33:59;17.11;75.91
74661;SHT31;63191;39.566;2.654;2022-12-20T16:36:29;17.10;75.76
74661;SHT31;63191;39.566;2.654;2022-12-20T16:38:56;17.06;75.80
74661;SHT31;63191;39.566;2.654;2022-12-20T16:41:23;17.01;75.99
74661;SHT31;63191;39.566;2.654;2022-12-20T16:43:52;16.98;76.19
74661;SHT31;63191;39.566;2.654;2022-12-20T16:46:20;16.94;76.45
74661;SHT31;63191;39.566;2.654;2022-12-20T16:48:50;16.92;76.44
74661;SHT31;63191;39.566;2.654;2022-12-20T16:51:33;16.91;76.64
74661;SHT31;63191;39.566;2.654;2022-12-20T16:54:15;16.85;76.59
74661;SHT31;63191;39.566;2.654;2022-12-20T16:56:44;16.81;76.79
74661;SHT31;63191;39.566;2.654;2022-12-20T16:59:12;16.78;77.01
74661;SHT31;63191;39.566;2.654;2022-12-20T17:01:38;16.78;77.10
74661;SHT31;63191;39.566;2.654;2022-12-20T17:04:08;16.76;77.15
74661;SHT31;63191;39.566;2.654;2022-12-20T17:06:40;16.72;77.15
74661;SHT31;63191;39.566;2.654;2022-12-20T17:09:06;16.67;77.10
74661;SHT31;63191;39.566;2.654;2022-12-20T17:11:33;16.62;77.09
74661;SHT31;63191;39.566;2.654;2022-12-20T17:13:59;16.59;77.20
74661;SHT31;63191;39.566;2.654;2022-12-20T17:16:25;16.56;77.44
74661;SHT31;63191;39.566;2.654;2022-12-20T17:18:53;16.52;77.63
74661;SHT31;63191;39.566;2.654;2022-12-20T17:24:00;16.54;78.12
74661;SHT31;63191;39.566;2.654;2022-12-20T17:26:30;16.56;78.24
74661;SHT31;63191;39.566;2.654;2022-12-20T17:28:58;16.59;78.23
74661;SHT31;63191;39.566;2.654;2022-12-20T17:31:26;16.60;78.18
74661;SHT31;63191;39.566;2.654;2022-12-20T17:33:55;16.63;77.98
74661;SHT31;63191;39.566;2.654;2022-12-20T17:36:27;16.67;77.81
74661;SHT31;63191;39.566;2.654;2022-12-20T17:38:53;16.70;77.62
74661;SHT31;63191;39.566;2.654;2022-12-20T17:41:22;16.72;77.47
74661;SHT31;63191;39.566;2.654;2022-12-20T17:43:56;16.74;77.35
74661;SHT31;63191;39.566;2.654;2022-12-20T17:46:24;16.74;77.35
74661;SHT31;63191;39.566;2.654;2022-12-20T17:48:51;16.76;77.39
74661;SHT31;63191;39.566;2.654;2022-12-20T17:51:18;16.77;77.33
74661;SHT31;63191;39.566;2.654;2022-12-20T17:53:52;16.77;77.39
74661;SHT31;63191;39.566;2.654;2022-12-20T17:56:24;16.76;77.25
74661;SHT31;63191;39.566;2.654;2022-12-20T17:58:53;16.76;76.91
74661;SHT31;63191;39.566;2.654;2022-12-20T18:01:22;16.77;77.06
74661;SHT31;63191;39.566;2.654;2022-12-20T18:03:52;16.75;77.14
74661;SHT31;63191;39.566;2.654;2022-12-20T18:06:20;16.70;76.96
74661;SHT31;63191;39.566;2.654;2022-12-20T18:08:48;16.69;77.13
74661;SHT31;63191;39.566;2.654;2022-12-20T18:11:18;16.68;77.54
74661;SHT31;63191;39.566;2.654;2022-12-20T18:13:46;16.66;77.89
74661;SHT31;63191;39.566;2.654;2022-12-20T18:16:16;16.62;77.26
74661;SHT31;63191;39.566;2.654;2022-12-20T18:18:49;16.60;77.40
74661;SHT31;63191;39.566;2.654;2022-12-20T18:21:16;16.60;77.81
74661;SHT31;63191;39.566;2.654;2022-12-20T18:23:44;16.61;78.19
74661;SHT31;63191;39.566;2.654;2022-12-20T18:26:15;16.63;78.19
74661;SHT31;63191;39.566;2.654;2022-12-20T18:28:49;16.64;78.00
74661;SHT31;63191;39.566;2.654;2022-12-20T18:31:20;16.66;77.92
74661;SHT31;63191;39.566;2.654;2022-12-20T18:33:50;16.66;77.80
74661;SHT31;63191;39.566;2.654;2022-12-20T18:36:18;16.65;77.69
74661;SHT31;63191;39.566;2.654;2022-12-20T18:38:47;16.68;77.11
74661;SHT31;63191;39.566;2.654;2022-12-20T18:41:16;16.68;76.73
74661;SHT31;63191;39.566;2.654;2022-12-20T18:43:48;16.69;76.82
74661;SHT31;63191;39.566;2.654;2022-12-20T18:46:19;16.70;77.01
74661;SHT31;63191;39.566;2.654;2022-12-20T18:48:48;16.72;77.16
74661;SHT31;63191;39.566;2.654;2022-12-20T18:51:23;16.71;77.36
74661;SHT31;63191;39.566;2.654;2022-12-20T18:53:55;16.71;77.17
74661;SHT31;63191;39.566;2.654;2022-12-20T18:56:24;16.71;76.97
74661;SHT31;63191;39.566;2.654;2022-12-20T18:58:55;16.70;77.03
74661;SHT31;63191;39.566;2.654;2022-12-20T19:01:24;16.69;77.39
74661;SHT31;63191;39.566;2.654;2022-12-20T19:03:54;16.70;77.56
74661;SHT31;63191;39.566;2.654;2022-12-20T19:06:24;16.72;77.58
74661;SHT31;63191;39.566;2.654;2022-12-20T19:08:50;16.72;77.51
74661;SHT31;63191;39.566;2.654;2022-12-20T19:11:17;16.71;77.31
74661;SHT31;63191;39.566;2.654;2022-12-20T19:13:45;16.71;76.64
74661;SHT31;63191;39.566;2.654;2022-12-20T19:16:17;16.72;76.07